sensor_id;sensor_type;location;lat;lon;timestamp;P1;durP1;ratioP1;P2;durP2;ratioP2
78296;SDS011;67555;47.660;19.622;2023-11-19T00:00:27;7.50;;;3.80;;
78296;SDS011;67555;47.660;19.622;2023-11-19T00:02:53;5.95;;;3.30;;
78296;SDS011;67555;47.660;19.622;2023-11-19T00:05:19;9.27;;;4.70;;
78296;SDS011;67555;47.660;19.622;2023-11-19T00:07:44;11.55;;;7.07;;
78296;SDS011;67555;47.660;19.622;2023-11-19T00:10:10;8.05;;;5.18;;
78296;SDS011;67555;47.660;19.622;2023-11-19T00:12:44;8.35;;;3.97;;
78296;SDS011;67555;47.660;19.622;2023-11-19T00:15:11;9.30;;;4.68;;
78296;SDS011;67555;47.660;19.622;2023-11-19T00:17:38;13.18;;;5.38;;
78296;SDS011;67555;47.660;19.622;2023-11-19T00:20:10;12.07;;;5.00;;
78296;SDS011;67555;47.660;19.622;2023-11-19T00:22:40;10.20;;;4.68;;
78296;SDS011;67555;47.660;19.622;2023-11-19T00:25:08;9.43;;;5.82;;
78296;SDS011;67555;47.660;19.622;2023-11-19T00:27:34;11.05;;;4.63;;
78296;SDS011;67555;47.660;19.622;2023-11-19T00:30:05;13.82;;;6.28;;
78296;SDS011;67555;47.660;19.622;2023-11-19T00:32:37;11.20;;;4.72;;
78296;SDS011;67555;47.660;19.622;2023-11-19T00:35:05;8.80;;;4.80;;
78296;SDS011;67555;47.660;19.622;2023-11-19T00:37:31;7.53;;;4.50;;
78296;SDS011;67555;47.660;19.622;2023-11-19T00:39:57;6.88;;;4.28;;
78296;SDS011;67555;47.660;19.622;2023-11-19T00:42:23;9.48;;;4.85;;
78296;SDS011;67555;47.660;19.622;2023-11-19T00:44:49;13.70;;;5.25;;
78296;SDS011;67555;47.660;19.622;2023-11-19T00:47:15;11.48;;;5.10;;
78296;SDS011;67555;47.660;19.622;2023-11-19T00:49:41;10.07;;;5.03;;
78296;SDS011;67555;47.660;19.622;2023-11-19T00:52:07;14.02;;;4.78;;
78296;SDS011;67555;47.660;19.622;2023-11-19T00:54:33;9.45;;;4.93;;
78296;SDS011;67555;47.660;19.622;2023-11-19T00:56:59;6.53;;;4.28;;
78296;SDS011;67555;47.660;19.622;2023-11-19T00:59:26;6.53;;;4.70;;
78296;SDS011;67555;47.660;19.622;2023-11-19T01:01:53;10.68;;;5.63;;
78296;SDS011;67555;47.660;19.622;2023-11-19T01:04:20;7.55;;;4.25;;
78296;SDS011;67555;47.660;19.622;2023-11-19T01:06:45;8.27;;;5.45;;
78296;SDS011;67555;47.660;19.622;2023-11-19T01:09:11;7.35;;;4.68;;
78296;SDS011;67555;47.660;19.622;2023-11-19T01:11:37;9.77;;;5.30;;
78296;SDS011;67555;47.660;19.622;2023-11-19T01:14:02;10.38;;;5.43;;
78296;SDS011;67555;47.660;19.622;2023-11-19T01:16:28;9.32;;;6.10;;
78296;SDS011;67555;47.660;19.622;2023-11-19T01:18:54;18.52;;;5.25;;
78296;SDS011;67555;47.660;19.622;2023-11-19T01:21:21;6.80;;;4.10;;
78296;SDS011;67555;47.660;19.622;2023-11-19T01:23:47;9.52;;;5.07;;
78296;SDS011;67555;47.660;19.622;2023-11-19T01:26:12;8.93;;;4.35;;
78296;SDS011;67555;47.660;19.622;2023-11-19T01:28:39;6.75;;;3.88;;
78296;SDS011;67555;47.660;19.622;2023-11-19T01:31:12;10.10;;;4.32;;
78296;SDS011;67555;47.660;19.622;2023-11-19T01:33:40;10.80;;;4.18;;
78296;SDS011;67555;47.660;19.622;2023-11-19T01:36:07;9.32;;;4.00;;
78296;SDS011;67555;47.660;19.622;2023-11-19T01:38:33;8.93;;;3.70;;
78296;SDS011;67555;47.660;19.622;2023-11-19T01:41:00;6.82;;;4.72;;
78296;SDS011;67555;47.660;19.622;2023-11-19T01:43:37;6.65;;;3.42;;
78296;SDS011;67555;47.660;19.622;2023-11-19T01:46:06;10.88;;;4.20;;
78296;SDS011;67555;47.660;19.622;2023-11-19T01:48:34;8.57;;;4.40;;
78296;SDS011;67555;47.660;19.622;2023-11-19T01:51:04;6.65;;;4.53;;
78296;SDS011;67555;47.660;19.622;2023-11-19T01:53:31;6.22;;;3.45;;
78296;SDS011;67555;47.660;19.622;2023-11-19T01:55:59;6.22;;;3.83;;
78296;SDS011;67555;47.660;19.622;2023-11-19T01:58:26;12.95;;;4.72;;
78296;SDS011;67555;47.660;19.622;2023-11-19T02:00:52;10.05;;;4.32;;
78296;SDS011;67555;47.660;19.622;2023-11-19T02:03:18;11.07;;;5.78;;
78296;SDS011;67555;47.660;19.622;2023-11-19T02:05:45;12.00;;;5.13;;
78296;SDS011;67555;47.660;19.622;2023-11-19T02:08:14;8.90;;;4.43;;
78296;SDS011;67555;47.660;19.622;2023-11-19T02:10:40;5.93;;;4.28;;
78296;SDS011;67555;47.660;19.622;2023-11-19T02:13:06;9.30;;;5.28;;
78296;SDS011;67555;47.660;19.622;2023-11-19T02:15:32;6.72;;;4.70;;
78296;SDS011;67555;47.660;19.622;2023-11-19T02:18:16;6.05;;;4.03;;
78296;SDS011;67555;47.660;19.622;2023-11-19T02:20:58;5.53;;;3.97;;
78296;SDS011;67555;47.660;19.622;2023-11-19T02:23:25;5.85;;;4.38;;
78296;SDS011;67555;47.660;19.622;2023-11-19T02:26:03;10.65;;;4.80;;
78296;SDS011;67555;47.660;19.622;2023-11-19T02:28:48;10.10;;;4.72;;
78296;SDS011;67555;47.660;19.622;2023-11-19T02:31:14;10.00;;;5.82;;
78296;SDS011;67555;47.660;19.622;2023-11-19T02:33:40;10.98;;;5.55;;
78296;SDS011;67555;47.660;19.622;2023-11-19T02:36:06;8.07;;;4.80;;
78296;SDS011;67555;47.660;19.622;2023-11-19T02:38:33;9.55;;;5.72;;
78296;SDS011;67555;47.660;19.622;2023-11-19T02:40:59;9.63;;;5.18;;
78296;SDS011;67555;47.660;19.622;2023-11-19T02:43:30;6.85;;;3.80;;
78296;SDS011;67555;47.660;19.622;2023-11-19T02:45:58;5.70;;;3.47;;
78296;SDS011;67555;47.660;19.622;2023-11-19T02:48:27;13.70;;;5.32;;
78296;SDS011;67555;47.660;19.622;2023-11-19T02:50:53;8.27;;;4.53;;
78296;SDS011;67555;47.660;19.622;2023-11-19T02:53:19;10.35;;;4.28;;
78296;SDS011;67555;47.660;19.622;2023-11-19T02:55:47;7.70;;;4.40;;
78296;SDS011;67555;47.660;19.622;2023-11-19T02:58:15;10.43;;;4.65;;
78296;SDS011;67555;47.660;19.622;2023-11-19T03:00:49;7.38;;;4.90;;
78296;SDS011;67555;47.660;19.622;2023-11-19T03:03:26;8.00;;;4.55;;
78296;SDS011;67555;47.660;19.622;2023-11-19T03:06:04;9.90;;;4.43;;
78296;SDS011;67555;47.660;19.622;2023-11-19T03:08:30;9.15;;;3.97;;
78296;SDS011;67555;47.660;19.622;2023-11-19T03:10:56;7.45;;;4.65;;
78296;SDS011;67555;47.660;19.622;2023-11-19T03:13:21;7.57;;;4.00;;
78296;SDS011;67555;47.660;19.622;2023-11-19T03:15:47;10.45;;;5.22;;
78296;SDS011;67555;47.660;19.622;2023-11-19T03:18:13;8.90;;;4.40;;
78296;SDS011;67555;47.660;19.622;2023-11-19T03:20:38;8.30;;;5.10;;
78296;SDS011;67555;47.660;19.622;2023-11-19T03:23:05;8.13;;;4.65;;
78296;SDS011;67555;47.660;19.622;2023-11-19T03:25:31;7.60;;;4.07;;
78296;SDS011;67555;47.660;19.622;2023-11-19T03:28:01;7.20;;;4.47;;
78296;SDS011;67555;47.660;19.622;2023-11-19T03:30:28;9.52;;;4.10;;
78296;SDS011;67555;47.660;19.622;2023-11-19T03:32:55;9.18;;;4.80;;
78296;SDS011;67555;47.660;19.622;2023-11-19T03:35:21;7.05;;;3.85;;
78296;SDS011;67555;47.660;19.622;2023-11-19T03:37:47;11.07;;;4.75;;
78296;SDS011;67555;47.660;19.622;2023-11-19T03:40:13;10.45;;;5.18;;
78296;SDS011;67555;47.660;19.622;2023-11-19T03:42:39;8.18;;;5.55;;
78296;SDS011;67555;47.660;19.622;2023-11-19T03:45:08;5.45;;;4.30;;
78296;SDS011;67555;47.660;19.622;2023-11-19T03:47:34;6.78;;;4.10;;
78296;SDS011;67555;47.660;19.622;2023-11-19T03:50:00;8.40;;;5.15;;
78296;SDS011;67555;47.660;19.622;2023-11-19T03:52:27;6.63;;;4.05;;
78296;SDS011;67555;47.660;19.622;2023-11-19T03:54:54;9.80;;;4.75;;
78296;SDS011;67555;47.660;19.622;2023-11-19T03:57:22;7.65;;;5.00;;
78296;SDS011;67555;47.660;19.622;2023-11-19T03:59:48;10.15;;;5.60;;
78296;SDS011;67555;47.660;19.622;2023-11-19T04:02:15;6.55;;;4.43;;
78296;SDS011;67555;47.660;19.622;2023-11-19T04:04:41;9.35;;;4.47;;
78296;SDS011;67555;47.660;19.622;2023-11-19T04:07:07;5.22;;;3.72;;
78296;SDS011;67555;47.660;19.622;2023-11-19T04:09:33;13.35;;;5.68;;
78296;SDS011;67555;47.660;19.622;2023-11-19T04:11:59;10.63;;;5.20;;
78296;SDS011;67555;47.660;19.622;2023-11-19T04:14:26;8.05;;;4.82;;
78296;SDS011;67555;47.660;19.622;2023-11-19T04:16:52;7.65;;;4.60;;
78296;SDS011;67555;47.660;19.622;2023-11-19T04:19:18;8.07;;;4.68;;
78296;SDS011;67555;47.660;19.622;2023-11-19T04:21:44;8.43;;;4.50;;
78296;SDS011;67555;47.660;19.622;2023-11-19T04:24:10;9.10;;;4.40;;
78296;SDS011;67555;47.660;19.622;2023-11-19T04:26:41;11.65;;;4.90;;
78296;SDS011;67555;47.660;19.622;2023-11-19T04:29:16;10.05;;;5.32;;
78296;SDS011;67555;47.660;19.622;2023-11-19T04:31:42;9.82;;;4.30;;
78296;SDS011;67555;47.660;19.622;2023-11-19T04:34:09;9.15;;;5.38;;
78296;SDS011;67555;47.660;19.622;2023-11-19T04:36:36;8.70;;;4.40;;
78296;SDS011;67555;47.660;19.622;2023-11-19T04:39:02;7.00;;;4.78;;
78296;SDS011;67555;47.660;19.622;2023-11-19T04:41:37;10.13;;;4.95;;
78296;SDS011;67555;47.660;19.622;2023-11-19T04:44:12;10.30;;;4.57;;
78296;SDS011;67555;47.660;19.622;2023-11-19T04:46:38;7.55;;;4.05;;
78296;SDS011;67555;47.660;19.622;2023-11-19T04:49:04;9.80;;;4.82;;
78296;SDS011;67555;47.660;19.622;2023-11-19T04:51:29;11.57;;;5.05;;
78296;SDS011;67555;47.660;19.622;2023-11-19T04:53:55;10.70;;;5.25;;
78296;SDS011;67555;47.660;19.622;2023-11-19T04:56:21;12.20;;;4.72;;
78296;SDS011;67555;47.660;19.622;2023-11-19T04:58:48;8.55;;;5.43;;
78296;SDS011;67555;47.660;19.622;2023-11-19T05:01:14;8.80;;;5.38;;
78296;SDS011;67555;47.660;19.622;2023-11-19T05:03:43;9.95;;;5.68;;
78296;SDS011;67555;47.660;19.622;2023-11-19T05:06:09;14.15;;;4.75;;
78296;SDS011;67555;47.660;19.622;2023-11-19T05:08:35;10.70;;;5.35;;
78296;SDS011;67555;47.660;19.622;2023-11-19T05:11:00;10.88;;;5.68;;
78296;SDS011;67555;47.660;19.622;2023-11-19T05:13:26;9.70;;;4.65;;
78296;SDS011;67555;47.660;19.622;2023-11-19T05:15:52;8.93;;;4.93;;
78296;SDS011;67555;47.660;19.622;2023-11-19T05:18:18;9.77;;;5.22;;
78296;SDS011;67555;47.660;19.622;2023-11-19T05:20:44;8.38;;;5.45;;
78296;SDS011;67555;47.660;19.622;2023-11-19T05:23:10;8.82;;;4.75;;
78296;SDS011;67555;47.660;19.622;2023-11-19T05:25:36;11.43;;;4.65;;
78296;SDS011;67555;47.660;19.622;2023-11-19T05:28:02;11.52;;;5.90;;
78296;SDS011;67555;47.660;19.622;2023-11-19T05:30:28;11.77;;;5.30;;
78296;SDS011;67555;47.660;19.622;2023-11-19T05:32:53;10.98;;;6.32;;
78296;SDS011;67555;47.660;19.622;2023-11-19T05:35:19;25.77;;;10.57;;
78296;SDS011;67555;47.660;19.622;2023-11-19T05:37:45;19.67;;;10.10;;
78296;SDS011;67555;47.660;19.622;2023-11-19T05:40:10;26.30;;;10.00;;
78296;SDS011;67555;47.660;19.622;2023-11-19T05:42:42;24.02;;;10.65;;
78296;SDS011;67555;47.660;19.622;2023-11-19T05:45:10;24.67;;;11.93;;
78296;SDS011;67555;47.660;19.622;2023-11-19T05:47:37;18.50;;;10.80;;
78296;SDS011;67555;47.660;19.622;2023-11-19T05:50:02;16.23;;;9.05;;
78296;SDS011;67555;47.660;19.622;2023-11-19T05:52:31;15.43;;;8.25;;
78296;SDS011;67555;47.660;19.622;2023-11-19T05:54:59;16.75;;;7.10;;
78296;SDS011;67555;47.660;19.622;2023-11-19T05:57:29;14.70;;;6.30;;
78296;SDS011;67555;47.660;19.622;2023-11-19T05:59:54;10.93;;;6.30;;
78296;SDS011;67555;47.660;19.622;2023-11-19T06:02:20;12.05;;;5.57;;
78296;SDS011;67555;47.660;19.622;2023-11-19T06:04:46;16.95;;;6.03;;
78296;SDS011;67555;47.660;19.622;2023-11-19T06:07:13;8.75;;;5.55;;
78296;SDS011;67555;47.660;19.622;2023-11-19T06:09:40;15.50;;;5.50;;
78296;SDS011;67555;47.660;19.622;2023-11-19T06:12:06;11.68;;;5.43;;
78296;SDS011;67555;47.660;19.622;2023-11-19T06:14:32;9.43;;;4.97;;
78296;SDS011;67555;47.660;19.622;2023-11-19T06:16:58;11.82;;;5.68;;
78296;SDS011;67555;47.660;19.622;2023-11-19T06:19:24;10.93;;;5.30;;
78296;SDS011;67555;47.660;19.622;2023-11-19T06:21:50;11.55;;;6.00;;
78296;SDS011;67555;47.660;19.622;2023-11-19T06:24:16;11.23;;;5.47;;
78296;SDS011;67555;47.660;19.622;2023-11-19T06:26:41;8.43;;;5.72;;
78296;SDS011;67555;47.660;19.622;2023-11-19T06:29:08;11.88;;;7.00;;
78296;SDS011;67555;47.660;19.622;2023-11-19T06:31:34;22.10;;;9.25;;
78296;SDS011;67555;47.660;19.622;2023-11-19T06:33:59;90.22;;;31.13;;
78296;SDS011;67555;47.660;19.622;2023-11-19T06:36:25;126.28;;;39.55;;
78296;SDS011;67555;47.660;19.622;2023-11-19T06:38:51;85.43;;;33.58;;
78296;SDS011;67555;47.660;19.622;2023-11-19T06:41:17;108.50;;;40.47;;
78296;SDS011;67555;47.660;19.622;2023-11-19T06:43:43;104.00;;;36.53;;
78296;SDS011;67555;47.660;19.622;2023-11-19T06:46:15;33.13;;;16.65;;
78296;SDS011;67555;47.660;19.622;2023-11-19T06:48:41;22.40;;;11.93;;
78296;SDS011;67555;47.660;19.622;2023-11-19T06:51:09;22.27;;;11.45;;
78296;SDS011;67555;47.660;19.622;2023-11-19T06:53:35;13.20;;;8.30;;
78296;SDS011;67555;47.660;19.622;2023-11-19T06:56:01;12.40;;;7.45;;
78296;SDS011;67555;47.660;19.622;2023-11-19T06:58:31;17.35;;;7.90;;
78296;SDS011;67555;47.660;19.622;2023-11-19T07:00:57;36.00;;;14.82;;
78296;SDS011;67555;47.660;19.622;2023-11-19T07:03:23;45.58;;;18.17;;
78296;SDS011;67555;47.660;19.622;2023-11-19T07:05:49;47.20;;;18.05;;
78296;SDS011;67555;47.660;19.622;2023-11-19T07:08:18;43.78;;;18.13;;
78296;SDS011;67555;47.660;19.622;2023-11-19T07:10:44;49.88;;;21.30;;
78296;SDS011;67555;47.660;19.622;2023-11-19T07:13:11;36.97;;;17.05;;
78296;SDS011;67555;47.660;19.622;2023-11-19T07:15:37;29.67;;;13.13;;
78296;SDS011;67555;47.660;19.622;2023-11-19T07:18:02;21.23;;;11.05;;
78296;SDS011;67555;47.660;19.622;2023-11-19T07:20:28;28.40;;;11.18;;
78296;SDS011;67555;47.660;19.622;2023-11-19T07:22:54;27.70;;;13.00;;
78296;SDS011;67555;47.660;19.622;2023-11-19T07:25:21;22.50;;;11.30;;
78296;SDS011;67555;47.660;19.622;2023-11-19T07:27:48;16.30;;;10.25;;
78296;SDS011;67555;47.660;19.622;2023-11-19T07:30:14;18.13;;;8.70;;
78296;SDS011;67555;47.660;19.622;2023-11-19T07:32:39;15.57;;;8.45;;
78296;SDS011;67555;47.660;19.622;2023-11-19T07:35:05;25.05;;;10.25;;
78296;SDS011;67555;47.660;19.622;2023-11-19T07:37:32;15.55;;;7.70;;
78296;SDS011;67555;47.660;19.622;2023-11-19T07:39:58;23.13;;;10.60;;
78296;SDS011;67555;47.660;19.622;2023-11-19T07:42:23;23.50;;;10.38;;
78296;SDS011;67555;47.660;19.622;2023-11-19T07:44:49;35.88;;;18.35;;
78296;SDS011;67555;47.660;19.622;2023-11-19T07:47:15;26.83;;;15.07;;
78296;SDS011;67555;47.660;19.622;2023-11-19T07:49:40;32.65;;;13.82;;
78296;SDS011;67555;47.660;19.622;2023-11-19T07:52:08;28.45;;;13.13;;
78296;SDS011;67555;47.660;19.622;2023-11-19T07:54:34;16.73;;;8.07;;
78296;SDS011;67555;47.660;19.622;2023-11-19T07:57:00;10.20;;;5.82;;
78296;SDS011;67555;47.660;19.622;2023-11-19T07:59:35;12.70;;;6.90;;
78296;SDS011;67555;47.660;19.622;2023-11-19T08:02:01;9.65;;;6.30;;
78296;SDS011;67555;47.660;19.622;2023-11-19T08:04:27;8.75;;;5.85;;
78296;SDS011;67555;47.660;19.622;2023-11-19T08:06:52;21.88;;;7.75;;
78296;SDS011;67555;47.660;19.622;2023-11-19T08:09:18;17.80;;;8.80;;
78296;SDS011;67555;47.660;19.622;2023-11-19T08:11:44;12.93;;;7.95;;
78296;SDS011;67555;47.660;19.622;2023-11-19T08:14:11;13.43;;;7.93;;
78296;SDS011;67555;47.660;19.622;2023-11-19T08:16:36;17.70;;;8.05;;
78296;SDS011;67555;47.660;19.622;2023-11-19T08:19:04;16.63;;;8.02;;
78296;SDS011;67555;47.660;19.622;2023-11-19T08:21:30;14.00;;;6.72;;
78296;SDS011;67555;47.660;19.622;2023-11-19T08:23:56;13.30;;;7.15;;
78296;SDS011;67555;47.660;19.622;2023-11-19T08:26:21;14.55;;;7.13;;
78296;SDS011;67555;47.660;19.622;2023-11-19T08:28:47;13.35;;;6.50;;
78296;SDS011;67555;47.660;19.622;2023-11-19T08:31:13;15.70;;;8.27;;
78296;SDS011;67555;47.660;19.622;2023-11-19T08:33:39;15.18;;;7.75;;
78296;SDS011;67555;47.660;19.622;2023-11-19T08:36:04;16.65;;;9.57;;
78296;SDS011;67555;47.660;19.622;2023-11-19T08:38:31;17.23;;;9.23;;
78296;SDS011;67555;47.660;19.622;2023-11-19T08:40:57;21.48;;;8.85;;
78296;SDS011;67555;47.660;19.622;2023-11-19T08:43:25;20.05;;;9.10;;
78296;SDS011;67555;47.660;19.622;2023-11-19T08:45:51;24.75;;;10.98;;
78296;SDS011;67555;47.660;19.622;2023-11-19T08:48:17;15.23;;;8.20;;
78296;SDS011;67555;47.660;19.622;2023-11-19T08:50:42;21.00;;;9.65;;
78296;SDS011;67555;47.660;19.622;2023-11-19T08:53:08;13.48;;;6.90;;
78296;SDS011;67555;47.660;19.622;2023-11-19T08:55:34;26.50;;;12.00;;
78296;SDS011;67555;47.660;19.622;2023-11-19T08:57:59;21.83;;;11.98;;
78296;SDS011;67555;47.660;19.622;2023-11-19T09:00:26;23.55;;;10.73;;
78296;SDS011;67555;47.660;19.622;2023-11-19T09:02:51;28.55;;;11.13;;
78296;SDS011;67555;47.660;19.622;2023-11-19T09:05:17;20.80;;;10.38;;
78296;SDS011;67555;47.660;19.622;2023-11-19T09:07:43;15.90;;;8.45;;
78296;SDS011;67555;47.660;19.622;2023-11-19T09:10:09;17.02;;;8.60;;
78296;SDS011;67555;47.660;19.622;2023-11-19T09:12:36;14.07;;;7.90;;
78296;SDS011;67555;47.660;19.622;2023-11-19T09:15:02;18.17;;;9.40;;
78296;SDS011;67555;47.660;19.622;2023-11-19T09:17:28;15.45;;;8.50;;
78296;SDS011;67555;47.660;19.622;2023-11-19T09:19:54;12.20;;;6.82;;
78296;SDS011;67555;47.660;19.622;2023-11-19T09:22:19;14.45;;;7.78;;
78296;SDS011;67555;47.660;19.622;2023-11-19T09:24:45;15.35;;;7.63;;
78296;SDS011;67555;47.660;19.622;2023-11-19T09:27:11;13.45;;;6.57;;
78296;SDS011;67555;47.660;19.622;2023-11-19T09:29:36;12.60;;;6.50;;
78296;SDS011;67555;47.660;19.622;2023-11-19T09:32:02;13.10;;;6.57;;
78296;SDS011;67555;47.660;19.622;2023-11-19T09:34:28;11.85;;;6.55;;
78296;SDS011;67555;47.660;19.622;2023-11-19T09:36:54;10.20;;;5.90;;
78296;SDS011;67555;47.660;19.622;2023-11-19T09:39:19;14.18;;;6.47;;
78296;SDS011;67555;47.660;19.622;2023-11-19T09:41:46;42.42;;;19.17;;
78296;SDS011;67555;47.660;19.622;2023-11-19T09:44:12;22.08;;;11.48;;
78296;SDS011;67555;47.660;19.622;2023-11-19T09:46:40;26.83;;;11.50;;
78296;SDS011;67555;47.660;19.622;2023-11-19T09:49:06;14.40;;;7.10;;
78296;SDS011;67555;47.660;19.622;2023-11-19T09:51:37;13.95;;;6.85;;
78296;SDS011;67555;47.660;19.622;2023-11-19T09:54:03;16.33;;;7.95;;
78296;SDS011;67555;47.660;19.622;2023-11-19T09:56:29;15.07;;;7.57;;
78296;SDS011;67555;47.660;19.622;2023-11-19T09:58:55;12.35;;;6.57;;
78296;SDS011;67555;47.660;19.622;2023-11-19T10:01:21;11.00;;;5.75;;
78296;SDS011;67555;47.660;19.622;2023-11-19T10:03:47;13.80;;;7.65;;
78296;SDS011;67555;47.660;19.622;2023-11-19T10:06:14;16.45;;;8.10;;
78296;SDS011;67555;47.660;19.622;2023-11-19T10:08:41;15.23;;;6.75;;
78296;SDS011;67555;47.660;19.622;2023-11-19T10:11:09;14.18;;;7.70;;
78296;SDS011;67555;47.660;19.622;2023-11-19T10:13:38;12.80;;;6.25;;
78296;SDS011;67555;47.660;19.622;2023-11-19T10:16:07;16.42;;;8.30;;
78296;SDS011;67555;47.660;19.622;2023-11-19T10:18:33;14.13;;;6.85;;
78296;SDS011;67555;47.660;19.622;2023-11-19T10:21:03;13.02;;;7.28;;
78296;SDS011;67555;47.660;19.622;2023-11-19T10:23:29;13.90;;;7.53;;
78296;SDS011;67555;47.660;19.622;2023-11-19T10:26:01;16.38;;;9.00;;
78296;SDS011;67555;47.660;19.622;2023-11-19T10:28:38;14.23;;;7.85;;
78296;SDS011;67555;47.660;19.622;2023-11-19T10:31:05;21.65;;;10.13;;
78296;SDS011;67555;47.660;19.622;2023-11-19T10:33:32;19.63;;;9.55;;
78296;SDS011;67555;47.660;19.622;2023-11-19T10:35:57;15.13;;;8.43;;
78296;SDS011;67555;47.660;19.622;2023-11-19T10:38:24;15.63;;;8.40;;
78296;SDS011;67555;47.660;19.622;2023-11-19T10:40:51;27.50;;;11.15;;
78296;SDS011;67555;47.660;19.622;2023-11-19T10:43:21;29.83;;;11.27;;
78296;SDS011;67555;47.660;19.622;2023-11-19T10:45:48;16.77;;;8.10;;
78296;SDS011;67555;47.660;19.622;2023-11-19T10:48:14;23.65;;;9.10;;
78296;SDS011;67555;47.660;19.622;2023-11-19T10:50:41;20.73;;;9.57;;
78296;SDS011;67555;47.660;19.622;2023-11-19T10:53:11;19.30;;;8.63;;
78296;SDS011;67555;47.660;19.622;2023-11-19T10:55:38;27.75;;;11.50;;
78296;SDS011;67555;47.660;19.622;2023-11-19T10:58:05;22.70;;;10.02;;
78296;SDS011;67555;47.660;19.622;2023-11-19T11:00:37;21.45;;;10.45;;
78296;SDS011;67555;47.660;19.622;2023-11-19T11:03:15;17.10;;;7.88;;
78296;SDS011;67555;47.660;19.622;2023-11-19T11:05:43;13.65;;;7.90;;
78296;SDS011;67555;47.660;19.622;2023-11-19T11:08:12;16.60;;;8.20;;
78296;SDS011;67555;47.660;19.622;2023-11-19T11:10:49;26.05;;;9.50;;
78296;SDS011;67555;47.660;19.622;2023-11-19T11:13:18;20.13;;;10.02;;
78296;SDS011;67555;47.660;19.622;2023-11-19T11:15:45;17.25;;;9.80;;
78296;SDS011;67555;47.660;19.622;2023-11-19T11:18:12;20.75;;;8.65;;
78296;SDS011;67555;47.660;19.622;2023-11-19T11:20:38;30.33;;;12.82;;
78296;SDS011;67555;47.660;19.622;2023-11-19T11:28:50;54.08;;;22.08;;
78296;SDS011;67555;47.660;19.622;2023-11-19T11:39:35;19.90;;;11.60;;
78296;SDS011;67555;47.660;19.622;2023-11-19T11:45:01;20.58;;;8.85;;
78296;SDS011;67555;47.660;19.622;2023-11-19T11:55:27;21.10;;;9.82;;
78296;SDS011;67555;47.660;19.622;2023-11-19T11:57:53;24.92;;;12.25;;
78296;SDS011;67555;47.660;19.622;2023-11-19T12:02:56;16.45;;;8.90;;
78296;SDS011;67555;47.660;19.622;2023-11-19T12:05:22;14.30;;;7.60;;
78296;SDS011;67555;47.660;19.622;2023-11-19T12:08:01;15.20;;;8.52;;
78296;SDS011;67555;47.660;19.622;2023-11-19T12:10:31;22.10;;;10.32;;
78296;SDS011;67555;47.660;19.622;2023-11-19T12:13:03;17.77;;;7.93;;
78296;SDS011;67555;47.660;19.622;2023-11-19T12:15:33;21.65;;;11.73;;
78296;SDS011;67555;47.660;19.622;2023-11-19T12:18:19;22.17;;;12.25;;
78296;SDS011;67555;47.660;19.622;2023-11-19T12:20:46;15.23;;;7.53;;
78296;SDS011;67555;47.660;19.622;2023-11-19T12:23:13;13.90;;;8.55;;
78296;SDS011;67555;47.660;19.622;2023-11-19T12:25:40;14.48;;;7.35;;
78296;SDS011;67555;47.660;19.622;2023-11-19T12:28:06;13.23;;;7.47;;
78296;SDS011;67555;47.660;19.622;2023-11-19T12:30:38;24.13;;;9.15;;
78296;SDS011;67555;47.660;19.622;2023-11-19T12:33:07;20.95;;;9.95;;
78296;SDS011;67555;47.660;19.622;2023-11-19T12:35:38;18.70;;;9.05;;
78296;SDS011;67555;47.660;19.622;2023-11-19T12:38:08;23.20;;;14.35;;
78296;SDS011;67555;47.660;19.622;2023-11-19T12:40:47;15.05;;;7.70;;
78296;SDS011;67555;47.660;19.622;2023-11-19T12:43:28;14.85;;;6.72;;
78296;SDS011;67555;47.660;19.622;2023-11-19T12:45:54;15.75;;;7.25;;
78296;SDS011;67555;47.660;19.622;2023-11-19T12:48:20;14.20;;;7.82;;
78296;SDS011;67555;47.660;19.622;2023-11-19T12:50:55;17.35;;;9.20;;
78296;SDS011;67555;47.660;19.622;2023-11-19T12:53:23;23.10;;;10.77;;
78296;SDS011;67555;47.660;19.622;2023-11-19T12:55:53;20.38;;;9.35;;
78296;SDS011;67555;47.660;19.622;2023-11-19T12:58:35;21.02;;;10.32;;
78296;SDS011;67555;47.660;19.622;2023-11-19T13:01:05;32.58;;;18.05;;
78296;SDS011;67555;47.660;19.622;2023-11-19T13:03:32;23.75;;;13.15;;
78296;SDS011;67555;47.660;19.622;2023-11-19T13:06:09;20.75;;;10.68;;
78296;SDS011;67555;47.660;19.622;2023-11-19T13:11:11;16.60;;;8.05;;
78296;SDS011;67555;47.660;19.622;2023-11-19T13:13:57;14.70;;;8.02;;
78296;SDS011;67555;47.660;19.622;2023-11-19T13:16:29;20.20;;;8.60;;
78296;SDS011;67555;47.660;19.622;2023-11-19T13:18:56;20.48;;;8.95;;
78296;SDS011;67555;47.660;19.622;2023-11-19T13:21:22;17.20;;;9.02;;
78296;SDS011;67555;47.660;19.622;2023-11-19T13:23:48;28.65;;;11.52;;
78296;SDS011;67555;47.660;19.622;2023-11-19T13:26:14;37.42;;;12.77;;
78296;SDS011;67555;47.660;19.622;2023-11-19T13:28:40;14.68;;;8.52;;
78296;SDS011;67555;47.660;19.622;2023-11-19T13:31:05;16.85;;;8.50;;
78296;SDS011;67555;47.660;19.622;2023-11-19T13:33:31;16.77;;;10.52;;
78296;SDS011;67555;47.660;19.622;2023-11-19T13:35:57;17.48;;;8.93;;
78296;SDS011;67555;47.660;19.622;2023-11-19T13:38:23;27.88;;;11.10;;
78296;SDS011;67555;47.660;19.622;2023-11-19T13:40:51;31.70;;;13.55;;
78296;SDS011;67555;47.660;19.622;2023-11-19T13:43:17;20.00;;;11.00;;
78296;SDS011;67555;47.660;19.622;2023-11-19T13:45:43;21.52;;;10.32;;
78296;SDS011;67555;47.660;19.622;2023-11-19T13:48:08;35.97;;;11.77;;
78296;SDS011;67555;47.660;19.622;2023-11-19T13:50:34;24.60;;;10.77;;
78296;SDS011;67555;47.660;19.622;2023-11-19T13:53:00;22.02;;;9.85;;
78296;SDS011;67555;47.660;19.622;2023-11-19T13:55:26;34.20;;;15.77;;
78296;SDS011;67555;47.660;19.622;2023-11-19T13:57:52;43.67;;;18.10;;
78296;SDS011;67555;47.660;19.622;2023-11-19T14:00:18;41.55;;;17.33;;
78296;SDS011;67555;47.660;19.622;2023-11-19T14:02:48;20.02;;;10.13;;
78296;SDS011;67555;47.660;19.622;2023-11-19T14:05:15;22.65;;;11.13;;
78296;SDS011;67555;47.660;19.622;2023-11-19T14:07:45;30.75;;;13.85;;
78296;SDS011;67555;47.660;19.622;2023-11-19T14:10:13;21.67;;;11.60;;
78296;SDS011;67555;47.660;19.622;2023-11-19T14:12:40;53.55;;;20.75;;
78296;SDS011;67555;47.660;19.622;2023-11-19T14:15:06;22.52;;;10.43;;
78296;SDS011;67555;47.660;19.622;2023-11-19T14:17:34;20.52;;;9.07;;
78296;SDS011;67555;47.660;19.622;2023-11-19T14:20:01;16.70;;;8.50;;
78296;SDS011;67555;47.660;19.622;2023-11-19T14:22:37;22.88;;;9.32;;
78296;SDS011;67555;47.660;19.622;2023-11-19T14:25:04;12.98;;;8.00;;
78296;SDS011;67555;47.660;19.622;2023-11-19T14:27:30;19.63;;;7.57;;
78296;SDS011;67555;47.660;19.622;2023-11-19T14:29:55;16.42;;;8.52;;
78296;SDS011;67555;47.660;19.622;2023-11-19T14:32:24;18.58;;;9.25;;
78296;SDS011;67555;47.660;19.622;2023-11-19T14:34:51;15.77;;;8.25;;
78296;SDS011;67555;47.660;19.622;2023-11-19T14:37:17;18.90;;;9.13;;
78296;SDS011;67555;47.660;19.622;2023-11-19T14:39:42;23.90;;;11.75;;
78296;SDS011;67555;47.660;19.622;2023-11-19T14:42:09;36.40;;;15.73;;
78296;SDS011;67555;47.660;19.622;2023-11-19T14:44:36;33.10;;;13.82;;
78296;SDS011;67555;47.660;19.622;2023-11-19T14:47:02;24.70;;;12.20;;
78296;SDS011;67555;47.660;19.622;2023-11-19T14:49:27;30.20;;;15.43;;
78296;SDS011;67555;47.660;19.622;2023-11-19T14:51:53;31.67;;;14.38;;